sensor_id;sensor_type;location;lat;lon;timestamp;pressure;altitude;pressure_sealevel;temperature;humidity
12536;BME280;6334;48.696;2.114;2022-08-01T00:00:56;100114.14;;;23.03;63.76
12536;BME280;6334;48.696;2.114;2022-08-01T00:03:23;100116.83;;;22.88;64.43
12536;BME280;6334;48.696;2.114;2022-08-01T00:05:54;100113.02;;;23.00;64.12
12536;BME280;6334;48.696;2.114;2022-08-01T00:08:24;100115.05;;;22.98;64.43
12536;BME280;6334;48.696;2.114;2022-08-01T00:10:54;100109.48;;;22.87;64.64
12536;BME280;6334;48.696;2.114;2022-08-01T00:13:25;100106.73;;;23.04;64.33
12536;BME280;6334;48.696;2.114;2022-08-01T00:15:55;100065.38;;;22.71;64.00
12536;BME280;6334;48.696;2.114;2022-08-01T00:18:26;100115.22;;;22.88;64.73
12536;BME280;6334;48.696;2.114;2022-08-01T00:20:56;100106.61;;;22.93;64.82
12536;BME280;6334;48.696;2.114;2022-08-01T00:23:27;100104.68;;;22.62;65.41
12536;BME280;6334;48.696;2.114;2022-08-01T00:25:57;100099.28;;;22.80;65.33
12536;BME280;6334;48.696;2.114;2022-08-01T00:28:28;100097.70;;;22.92;65.07
12536;BME280;6334;48.696;2.114;2022-08-01T00:30:58;100097.95;;;22.43;65.64
12536;BME280;6334;48.696;2.114;2022-08-01T00:33:29;100095.13;;;22.79;65.10
12536;BME280;6334;48.696;2.114;2022-08-01T00:35:59;100095.59;;;22.88;64.73
12536;BME280;6334;48.696;2.114;2022-08-01T00:38:29;100089.04;;;22.65;66.72
12536;BME280;6334;48.696;2.114;2022-08-01T00:41:00;100033.70;;;22.35;65.50
12536;BME280;6334;48.696;2.114;2022-08-01T00:43:30;100093.95;;;22.83;65.00
12536;BME280;6334;48.696;2.114;2022-08-01T00:46:01;100089.13;;;22.65;65.49
12536;BME280;6334;48.696;2.114;2022-08-01T00:48:31;100089.68;;;22.73;65.28
12536;BME280;6334;48.696;2.114;2022-08-01T00:51:03;100087.38;;;22.74;65.80
12536;BME280;6334;48.696;2.114;2022-08-01T00:53:32;100088.20;;;22.94;65.07
12536;BME280;6334;48.696;2.114;2022-08-01T00:56:03;100088.02;;;22.81;65.29
12536;BME280;6334;48.696;2.114;2022-08-01T00:58:33;100090.52;;;22.87;65.23
12536;BME280;6334;48.696;2.114;2022-08-01T01:03:49;100084.59;;;22.61;65.69
12536;BME280;6334;48.696;2.114;2022-08-01T01:09:26;100036.84;;;21.91;68.48
12536;BME280;6334;48.696;2.114;2022-08-01T01:12:00;100085.39;;;22.23;67.96
12536;BME280;6334;48.696;2.114;2022-08-01T01:14:41;100089.23;;;22.47;67.35
12536;BME280;6334;48.696;2.114;2022-08-01T01:17:08;100086.06;;;22.58;66.81
12536;BME280;6334;48.696;2.114;2022-08-01T01:19:39;100085.53;;;22.63;67.03
12536;BME280;6334;48.696;2.114;2022-08-01T01:22:27;100084.84;;;22.49;67.42
12536;BME280;6334;48.696;2.114;2022-08-01T01:25:21;100084.07;;;22.40;67.08
12536;BME280;6334;48.696;2.114;2022-08-01T01:27:54;100079.53;;;22.52;66.93
12536;BME280;6334;48.696;2.114;2022-08-01T01:30:20;100084.63;;;22.51;67.13
12536;BME280;6334;48.696;2.114;2022-08-01T01:32:51;100081.20;;;22.52;68.00
12536;BME280;6334;48.696;2.114;2022-08-01T01:35:22;100084.83;;;22.46;67.82
12536;BME280;6334;48.696;2.114;2022-08-01T01:37:54;100088.91;;;22.52;67.22
12536;BME280;6334;48.696;2.114;2022-08-01T01:40:22;100088.70;;;22.55;67.47
12536;BME280;6334;48.696;2.114;2022-08-01T01:42:52;100080.55;;;22.50;67.95
12536;BME280;6334;48.696;2.114;2022-08-01T01:45:23;100071.27;;;22.04;68.60
12536;BME280;6334;48.696;2.114;2022-08-01T01:47:53;100079.03;;;22.34;67.89
12536;BME280;6334;48.696;2.114;2022-08-01T01:50:24;100078.03;;;22.34;68.07
12536;BME280;6334;48.696;2.114;2022-08-01T01:52:54;100070.27;;;22.14;68.31
12536;BME280;6334;48.696;2.114;2022-08-01T01:55:25;100074.34;;;21.92;68.92
12536;BME280;6334;48.696;2.114;2022-08-01T01:57:55;100076.64;;;22.24;68.30
12536;BME280;6334;48.696;2.114;2022-08-01T02:00:26;100078.22;;;22.08;68.79
12536;BME280;6334;48.696;2.114;2022-08-01T02:02:56;100076.05;;;21.77;69.69
12536;BME280;6334;48.696;2.114;2022-08-01T02:05:27;100081.88;;;21.81;69.51
12536;BME280;6334;48.696;2.114;2022-08-01T02:07:57;100021.08;;;21.46;69.85
12536;BME280;6334;48.696;2.114;2022-08-01T02:10:28;100079.38;;;21.75;70.05
12536;BME280;6334;48.696;2.114;2022-08-01T02:12:58;100003.97;;;21.28;69.86
12536;BME280;6334;48.696;2.114;2022-08-01T02:15:29;100082.59;;;21.34;71.43
12536;BME280;6334;48.696;2.114;2022-08-01T02:17:59;100084.57;;;21.35;71.46
12536;BME280;6334;48.696;2.114;2022-08-01T02:20:29;100081.64;;;21.37;71.32
12536;BME280;6334;48.696;2.114;2022-08-01T02:23:07;100083.90;;;21.42;71.24
12536;BME280;6334;48.696;2.114;2022-08-01T02:25:40;100081.37;;;21.37;71.22
12536;BME280;6334;48.696;2.114;2022-08-01T02:28:45;100079.89;;;21.21;71.29
12536;BME280;6334;48.696;2.114;2022-08-01T02:30:47;100075.25;;;21.17;71.40
12536;BME280;6334;48.696;2.114;2022-08-01T02:33:28;100078.80;;;20.94;73.12
12536;BME280;6334;48.696;2.114;2022-08-01T02:35:54;100030.47;;;20.69;72.67
12536;BME280;6334;48.696;2.114;2022-08-01T02:38:24;100080.70;;;21.22;72.01
12536;BME280;6334;48.696;2.114;2022-08-01T02:40:54;100078.57;;;21.25;71.77
12536;BME280;6334;48.696;2.114;2022-08-01T02:43:25;100082.85;;;20.94;72.98
12536;BME280;6334;48.696;2.114;2022-08-01T02:45:55;99937.88;;;20.33;72.08
12536;BME280;6334;48.696;2.114;2022-08-01T02:48:25;100082.57;;;21.03;72.71
12536;BME280;6334;48.696;2.114;2022-08-01T02:50:57;100075.55;;;21.09;72.45
12536;BME280;6334;48.696;2.114;2022-08-01T02:53:26;100074.33;;;20.84;74.03
12536;BME280;6334;48.696;2.114;2022-08-01T02:55:56;100072.16;;;21.13;72.85
12536;BME280;6334;48.696;2.114;2022-08-01T02:58:27;100075.95;;;21.50;72.62
12536;BME280;6334;48.696;2.114;2022-08-01T03:00:57;100080.33;;;21.57;70.75
12536;BME280;6334;48.696;2.114;2022-08-01T03:03:27;100074.14;;;21.11;71.83
12536;BME280;6334;48.696;2.114;2022-08-01T03:05:58;100074.01;;;20.97;72.93
12536;BME280;6334;48.696;2.114;2022-08-01T03:08:29;100035.70;;;20.56;73.80
12536;BME280;6334;48.696;2.114;2022-08-01T03:10:59;100077.54;;;20.96;73.45
12536;BME280;6334;48.696;2.114;2022-08-01T03:13:29;100062.38;;;20.73;73.99
12536;BME280;6334;48.696;2.114;2022-08-01T03:16:00;100079.95;;;20.89;73.49
12536;BME280;6334;48.696;2.114;2022-08-01T03:18:30;100076.27;;;20.90;73.33
12536;BME280;6334;48.696;2.114;2022-08-01T03:21:01;100079.05;;;21.12;72.81
12536;BME280;6334;48.696;2.114;2022-08-01T03:23:31;100079.53;;;21.28;71.98
12536;BME280;6334;48.696;2.114;2022-08-01T03:26:02;100080.20;;;20.87;74.44
12536;BME280;6334;48.696;2.114;2022-08-01T03:28:32;100074.30;;;20.93;73.64
12536;BME280;6334;48.696;2.114;2022-08-01T03:31:03;100077.84;;;20.79;74.46
12536;BME280;6334;48.696;2.114;2022-08-01T03:33:33;100081.17;;;20.83;75.12
12536;BME280;6334;48.696;2.114;2022-08-01T03:36:03;100084.39;;;20.79;74.64
12536;BME280;6334;48.696;2.114;2022-08-01T03:38:34;100070.44;;;20.70;74.98
12536;BME280;6334;48.696;2.114;2022-08-01T03:41:19;100082.75;;;20.78;75.43
12536;BME280;6334;48.696;2.114;2022-08-01T03:43:47;100081.77;;;20.75;75.60
12536;BME280;6334;48.696;2.114;2022-08-01T03:46:20;100082.09;;;21.00;75.31
12536;BME280;6334;48.696;2.114;2022-08-01T03:48:50;100084.33;;;20.78;75.83
12536;BME280;6334;48.696;2.114;2022-08-01T03:51:20;100086.83;;;20.84;75.41
12536;BME280;6334;48.696;2.114;2022-08-01T03:53:51;100084.91;;;20.79;76.13
12536;BME280;6334;48.696;2.114;2022-08-01T03:56:21;100091.80;;;20.92;75.69
12536;BME280;6334;48.696;2.114;2022-08-01T03:58:52;100085.47;;;20.59;77.16
12536;BME280;6334;48.696;2.114;2022-08-01T04:01:22;100084.83;;;20.69;76.91
12536;BME280;6334;48.696;2.114;2022-08-01T04:03:53;100085.92;;;20.84;76.11
12536;BME280;6334;48.696;2.114;2022-08-01T04:06:23;100087.98;;;20.78;76.44
12536;BME280;6334;48.696;2.114;2022-08-01T04:08:53;100082.59;;;21.52;74.60
12536;BME280;6334;48.696;2.114;2022-08-01T04:11:25;100083.94;;;21.27;73.54
12536;BME280;6334;48.696;2.114;2022-08-01T04:13:55;100078.13;;;21.12;73.62
12536;BME280;6334;48.696;2.114;2022-08-01T04:16:25;100078.64;;;21.18;74.60
12536;BME280;6334;48.696;2.114;2022-08-01T04:18:56;100083.65;;;21.26;74.95
12536;BME280;6334;48.696;2.114;2022-08-01T04:21:26;100085.13;;;20.73;77.00
12536;BME280;6334;48.696;2.114;2022-08-01T04:23:58;100078.77;;;20.90;76.88
12536;BME280;6334;48.696;2.114;2022-08-01T04:26:27;100076.92;;;20.75;77.09
12536;BME280;6334;48.696;2.114;2022-08-01T04:28:57;100077.73;;;21.04;76.00
12536;BME280;6334;48.696;2.114;2022-08-01T04:31:28;100076.70;;;20.94;76.59
12536;BME280;6334;48.696;2.114;2022-08-01T04:33:58;100076.39;;;20.86;76.82
12536;BME280;6334;48.696;2.114;2022-08-01T04:36:29;100080.70;;;20.96;77.10
12536;BME280;6334;48.696;2.114;2022-08-01T04:38:59;100078.39;;;21.17;76.38
12536;BME280;6334;48.696;2.114;2022-08-01T04:41:30;100005.49;;;20.63;76.10
12536;BME280;6334;48.696;2.114;2022-08-01T04:44:00;100054.90;;;20.69;77.15
12536;BME280;6334;48.696;2.114;2022-08-01T04:46:31;100078.09;;;21.13;76.16
12536;BME280;6334;48.696;2.114;2022-08-01T04:49:01;100081.37;;;20.89;77.05
12536;BME280;6334;48.696;2.114;2022-08-01T04:51:32;100078.21;;;20.67;78.43
12536;BME280;6334;48.696;2.114;2022-08-01T04:54:02;100079.95;;;20.82;78.13
12536;BME280;6334;48.696;2.114;2022-08-01T04:56:32;100081.45;;;20.72;78.42
12536;BME280;6334;48.696;2.114;2022-08-01T04:59:03;100084.11;;;20.88;77.62
12536;BME280;6334;48.696;2.114;2022-08-01T05:01:52;100026.97;;;20.67;77.45
12536;BME280;6334;48.696;2.114;2022-08-01T05:04:22;100092.39;;;21.10;76.77
12536;BME280;6334;48.696;2.114;2022-08-01T05:06:53;100096.10;;;20.85;77.91
12536;BME280;6334;48.696;2.114;2022-08-01T05:09:23;100094.70;;;20.88;77.61
12536;BME280;6334;48.696;2.114;2022-08-01T05:11:53;100099.69;;;20.82;78.25
12536;BME280;6334;48.696;2.114;2022-08-01T05:14:25;100096.80;;;20.74;78.59
12536;BME280;6334;48.696;2.114;2022-08-01T05:16:54;100101.28;;;20.97;77.49
12536;BME280;6334;48.696;2.114;2022-08-01T05:19:25;100097.99;;;21.18;76.63
12536;BME280;6334;48.696;2.114;2022-08-01T05:21:55;100101.13;;;21.30;76.59
12536;BME280;6334;48.696;2.114;2022-08-01T05:24:29;100103.95;;;21.65;75.11
12536;BME280;6334;48.696;2.114;2022-08-01T05:26:59;100095.94;;;21.73;73.74
12536;BME280;6334;48.696;2.114;2022-08-01T05:29:30;100099.00;;;21.40;75.68
12536;BME280;6334;48.696;2.114;2022-08-01T05:32:00;100094.06;;;21.23;76.56
12536;BME280;6334;48.696;2.114;2022-08-01T05:34:30;100094.92;;;21.46;75.94
12536;BME280;6334;48.696;2.114;2022-08-01T05:37:01;100089.82;;;21.82;74.35
12536;BME280;6334;48.696;2.114;2022-08-01T05:39:31;100034.03;;;20.89;77.06
12536;BME280;6334;48.696;2.114;2022-08-01T05:42:02;100099.77;;;21.70;75.47
12536;BME280;6334;48.696;2.114;2022-08-01T05:44:32;100100.47;;;21.35;76.09
12536;BME280;6334;48.696;2.114;2022-08-01T05:47:03;100104.27;;;21.83;74.60
12536;BME280;6334;48.696;2.114;2022-08-01T05:49:33;100110.77;;;21.46;76.27
12536;BME280;6334;48.696;2.114;2022-08-01T05:52:04;100016.04;;;21.27;74.37
12536;BME280;6334;48.696;2.114;2022-08-01T05:54:34;100114.66;;;21.80;74.93
12536;BME280;6334;48.696;2.114;2022-08-01T05:57:05;100114.55;;;21.75;75.74
12536;BME280;6334;48.696;2.114;2022-08-01T05:59:35;100112.22;;;21.84;75.42
12536;BME280;6334;48.696;2.114;2022-08-01T06:02:05;100111.92;;;21.56;76.75
12536;BME280;6334;48.696;2.114;2022-08-01T06:04:36;100110.64;;;21.80;75.43
12536;BME280;6334;48.696;2.114;2022-08-01T06:07:06;100106.23;;;22.07;73.96
12536;BME280;6334;48.696;2.114;2022-08-01T06:09:37;100107.95;;;22.00;74.77
12536;BME280;6334;48.696;2.114;2022-08-01T06:12:07;100109.31;;;22.22;73.78
12536;BME280;6334;48.696;2.114;2022-08-01T06:14:38;100114.05;;;21.81;75.27
12536;BME280;6334;48.696;2.114;2022-08-01T06:17:08;100099.80;;;22.02;74.38
12536;BME280;6334;48.696;2.114;2022-08-01T06:19:39;100113.34;;;21.76;75.03
12536;BME280;6334;48.696;2.114;2022-08-01T06:22:09;100111.88;;;22.06;74.44
12536;BME280;6334;48.696;2.114;2022-08-01T06:24:40;100119.81;;;22.37;73.05
12536;BME280;6334;48.696;2.114;2022-08-01T06:27:10;100111.67;;;22.12;74.06
12536;BME280;6334;48.696;2.114;2022-08-01T06:29:40;100113.27;;;21.84;75.09
12536;BME280;6334;48.696;2.114;2022-08-01T06:32:11;100119.68;;;21.90;74.46
12536;BME280;6334;48.696;2.114;2022-08-01T06:34:41;100111.02;;;21.90;74.87
12536;BME280;6334;48.696;2.114;2022-08-01T06:37:12;100117.89;;;21.80;74.51
12536;BME280;6334;48.696;2.114;2022-08-01T06:39:42;100115.05;;;22.25;73.78
12536;BME280;6334;48.696;2.114;2022-08-01T06:42:13;100110.83;;;22.32;72.58
12536;BME280;6334;48.696;2.114;2022-08-01T06:44:43;100111.05;;;22.52;72.10
12536;BME280;6334;48.696;2.114;2022-08-01T06:47:14;100110.34;;;22.51;71.81
12536;BME280;6334;48.696;2.114;2022-08-01T06:49:44;100115.62;;;22.29;73.13
12536;BME280;6334;48.696;2.114;2022-08-01T06:52:15;100117.41;;;22.63;71.68
12536;BME280;6334;48.696;2.114;2022-08-01T06:54:45;100115.74;;;22.29;72.13
12536;BME280;6334;48.696;2.114;2022-08-01T06:57:16;100119.29;;;22.47;71.87
12536;BME280;6334;48.696;2.114;2022-08-01T06:59:46;100036.27;;;22.13;71.88
12536;BME280;6334;48.696;2.114;2022-08-01T07:02:17;100109.24;;;22.61;71.36
12536;BME280;6334;48.696;2.114;2022-08-01T07:04:47;100113.34;;;22.85;70.68
12536;BME280;6334;48.696;2.114;2022-08-01T07:07:17;100116.14;;;22.25;71.92
12536;BME280;6334;48.696;2.114;2022-08-01T07:09:48;100126.86;;;22.61;71.26
12536;BME280;6334;48.696;2.114;2022-08-01T07:12:18;100122.44;;;22.69;70.00
12536;BME280;6334;48.696;2.114;2022-08-01T07:14:49;100125.75;;;22.57;71.14
12536;BME280;6334;48.696;2.114;2022-08-01T07:17:19;100100.73;;;22.00;71.72
12536;BME280;6334;48.696;2.114;2022-08-01T07:19:50;100121.00;;;22.86;70.34
12536;BME280;6334;48.696;2.114;2022-08-01T07:22:20;100116.17;;;22.78;69.96
12536;BME280;6334;48.696;2.114;2022-08-01T07:24:51;100124.41;;;22.61;69.57
12536;BME280;6334;48.696;2.114;2022-08-01T07:27:21;100122.33;;;22.20;70.92
12536;BME280;6334;48.696;2.114;2022-08-01T07:29:51;100129.33;;;22.64;69.81
12536;BME280;6334;48.696;2.114;2022-08-01T07:32:22;100120.99;;;22.75;69.71
12536;BME280;6334;48.696;2.114;2022-08-01T07:34:52;100129.74;;;22.80;69.43
12536;BME280;6334;48.696;2.114;2022-08-01T07:37:23;100130.50;;;23.02;69.02
12536;BME280;6334;48.696;2.114;2022-08-01T07:39:53;100131.17;;;23.25;68.28
12536;BME280;6334;48.696;2.114;2022-08-01T07:42:24;100133.58;;;22.81;69.57
12536;BME280;6334;48.696;2.114;2022-08-01T07:44:54;100139.91;;;23.07;69.05
12536;BME280;6334;48.696;2.114;2022-08-01T07:47:25;100138.39;;;22.42;70.82
12536;BME280;6334;48.696;2.114;2022-08-01T07:50:02;100140.83;;;22.95;69.31
12536;BME280;6334;48.696;2.114;2022-08-01T07:52:31;100140.24;;;23.11;68.58
12536;BME280;6334;48.696;2.114;2022-08-01T07:55:02;100145.75;;;22.86;69.03
12536;BME280;6334;48.696;2.114;2022-08-01T07:57:32;100142.78;;;23.08;68.13
12536;BME280;6334;48.696;2.114;2022-08-01T08:00:03;100151.38;;;23.12;68.13
12536;BME280;6334;48.696;2.114;2022-08-01T08:02:33;100149.24;;;23.08;67.88
12536;BME280;6334;48.696;2.114;2022-08-01T08:05:04;100151.91;;;22.89;68.06
12536;BME280;6334;48.696;2.114;2022-08-01T08:07:34;100157.03;;;22.57;69.11
12536;BME280;6334;48.696;2.114;2022-08-01T08:10:05;100156.02;;;22.47;69.92
12536;BME280;6334;48.696;2.114;2022-08-01T08:12:35;100153.31;;;23.04;68.07
12536;BME280;6334;48.696;2.114;2022-08-01T08:15:06;100153.05;;;23.00;68.20
12536;BME280;6334;48.696;2.114;2022-08-01T08:17:36;100130.28;;;22.70;68.65
12536;BME280;6334;48.696;2.114;2022-08-01T08:20:07;100156.03;;;22.49;70.17
12536;BME280;6334;48.696;2.114;2022-08-01T08:22:37;100143.84;;;21.95;71.00
12536;BME280;6334;48.696;2.114;2022-08-01T08:25:08;100163.77;;;22.44;70.57
12536;BME280;6334;48.696;2.114;2022-08-01T08:27:38;100163.64;;;22.07;71.41
12536;BME280;6334;48.696;2.114;2022-08-01T08:30:08;100167.95;;;22.22;70.98
12536;BME280;6334;48.696;2.114;2022-08-01T08:32:39;100158.59;;;22.83;68.79
12536;BME280;6334;48.696;2.114;2022-08-01T08:35:09;100150.39;;;23.05;67.95
12536;BME280;6334;48.696;2.114;2022-08-01T08:37:40;100068.69;;;22.38;69.47
12536;BME280;6334;48.696;2.114;2022-08-01T08:40:10;100149.61;;;22.86;68.81
12536;BME280;6334;48.696;2.114;2022-08-01T08:42:41;100147.30;;;23.07;67.97
12536;BME280;6334;48.696;2.114;2022-08-01T08:45:11;100140.69;;;23.21;67.85
12536;BME280;6334;48.696;2.114;2022-08-01T08:47:42;100139.71;;;23.53;67.32
12536;BME280;6334;48.696;2.114;2022-08-01T08:50:12;100141.99;;;24.91;63.03
12536;BME280;6334;48.696;2.114;2022-08-01T08:52:43;100139.30;;;24.54;64.27
12536;BME280;6334;48.696;2.114;2022-08-01T08:55:13;100139.91;;;23.87;66.05
12536;BME280;6334;48.696;2.114;2022-08-01T08:57:44;100135.05;;;24.36;64.14
12536;BME280;6334;48.696;2.114;2022-08-01T09:00:14;100139.68;;;25.45;61.81
12536;BME280;6334;48.696;2.114;2022-08-01T09:02:45;100136.33;;;25.34;60.87
12536;BME280;6334;48.696;2.114;2022-08-01T09:05:15;100125.78;;;25.05;61.15
12536;BME280;6334;48.696;2.114;2022-08-01T09:07:45;100124.23;;;25.54;59.97
12536;BME280;6334;48.696;2.114;2022-08-01T09:10:16;100127.97;;;24.48;62.52
12536;BME280;6334;48.696;2.114;2022-08-01T09:13:09;100138.33;;;24.82;63.21
12536;BME280;6334;48.696;2.114;2022-08-01T09:15:41;100134.47;;;24.85;62.46
12536;BME280;6334;48.696;2.114;2022-08-01T09:18:29;100144.64;;;24.17;64.42
12536;BME280;6334;48.696;2.114;2022-08-01T09:21:11;100156.67;;;24.53;63.65
12536;BME280;6334;48.696;2.114;2022-08-01T09:23:43;100154.19;;;24.61;63.19
12536;BME280;6334;48.696;2.114;2022-08-01T09:26:13;100148.70;;;24.56;63.26
12536;BME280;6334;48.696;2.114;2022-08-01T09:28:43;100151.56;;;24.04;64.63
12536;BME280;6334;48.696;2.114;2022-08-01T09:31:17;100146.92;;;23.75;65.92
12536;BME280;6334;48.696;2.114;2022-08-01T09:33:56;100150.40;;;24.44;64.01
12536;BME280;6334;48.696;2.114;2022-08-01T09:36:27;100122.88;;;24.15;64.06
12536;BME280;6334;48.696;2.114;2022-08-01T09:38:56;100159.88;;;24.04;64.81
12536;BME280;6334;48.696;2.114;2022-08-01T09:41:29;100167.38;;;24.18;64.46
12536;BME280;6334;48.696;2.114;2022-08-01T09:43:59;100136.84;;;23.43;66.28
12536;BME280;6334;48.696;2.114;2022-08-01T09:46:30;100092.92;;;23.13;66.35
12536;BME280;6334;48.696;2.114;2022-08-01T09:49:04;100087.28;;;23.11;67.00
12536;BME280;6334;48.696;2.114;2022-08-01T09:51:35;100142.86;;;23.76;65.96
12536;BME280;6334;48.696;2.114;2022-08-01T09:54:05;100145.19;;;23.95;65.32
12536;BME280;6334;48.696;2.114;2022-08-01T09:56:40;100145.35;;;23.73;65.82
12536;BME280;6334;48.696;2.114;2022-08-01T09:59:10;100163.88;;;23.93;65.31
12536;BME280;6334;48.696;2.114;2022-08-01T10:01:49;100158.41;;;25.04;62.79
12536;BME280;6334;48.696;2.114;2022-08-01T10:04:18;100173.70;;;24.95;62.59
12536;BME280;6334;48.696;2.114;2022-08-01T10:06:50;100170.14;;;25.44;60.95
12536;BME280;6334;48.696;2.114;2022-08-01T10:09:28;100164.06;;;25.18;61.63
12536;BME280;6334;48.696;2.114;2022-08-01T10:11:57;100162.94;;;25.13;61.27
12536;BME280;6334;48.696;2.114;2022-08-01T10:14:28;100161.95;;;24.66;62.32
12536;BME280;6334;48.696;2.114;2022-08-01T10:16:58;100146.19;;;24.51;62.96
12536;BME280;6334;48.696;2.114;2022-08-01T10:19:29;100091.36;;;24.45;61.57
12536;BME280;6334;48.696;2.114;2022-08-01T10:21:59;100141.27;;;25.70;59.42
12536;BME280;6334;48.696;2.114;2022-08-01T10:24:29;100157.45;;;24.87;61.54
12536;BME280;6334;48.696;2.114;2022-08-01T10:27:03;100150.36;;;25.38;60.75
12536;BME280;6334;48.696;2.114;2022-08-01T10:29:37;100159.20;;;25.31;59.58
12536;BME280;6334;48.696;2.114;2022-08-01T10:32:06;100158.16;;;25.20;59.66
12536;BME280;6334;48.696;2.114;2022-08-01T10:34:37;100149.75;;;25.20;58.88
12536;BME280;6334;48.696;2.114;2022-08-01T10:37:07;100151.67;;;26.26;57.04
12536;BME280;6334;48.696;2.114;2022-08-01T10:39:37;100151.74;;;26.35;57.44
12536;BME280;6334;48.696;2.114;2022-08-01T10:42:09;100158.03;;;25.72;59.25
12536;BME280;6334;48.696;2.114;2022-08-01T10:44:38;100159.11;;;24.92;61.40
12536;BME280;6334;48.696;2.114;2022-08-01T10:47:12;100158.39;;;25.31;59.59
12536;BME280;6334;48.696;2.114;2022-08-01T10:49:51;100157.55;;;24.85;60.81
12536;BME280;6334;48.696;2.114;2022-08-01T10:52:18;100149.02;;;24.90;61.00
12536;BME280;6334;48.696;2.114;2022-08-01T10:55:02;100153.84;;;24.23;63.19
12536;BME280;6334;48.696;2.114;2022-08-01T10:57:19;100157.69;;;24.15;63.81
12536;BME280;6334;48.696;2.114;2022-08-01T10:59:50;100153.34;;;24.25;63.82
12536;BME280;6334;48.696;2.114;2022-08-01T11:02:29;100155.37;;;24.73;62.92
12536;BME280;6334;48.696;2.114;2022-08-01T11:05:02;100150.98;;;24.97;62.38
12536;BME280;6334;48.696;2.114;2022-08-01T11:07:49;100157.97;;;25.14;60.92
12536;BME280;6334;48.696;2.114;2022-08-01T11:10:30;100156.39;;;25.40;60.03
12536;BME280;6334;48.696;2.114;2022-08-01T11:12:56;100157.41;;;25.82;59.22
12536;BME280;6334;48.696;2.114;2022-08-01T11:15:26;100158.61;;;25.61;59.81
12536;BME280;6334;48.696;2.114;2022-08-01T11:17:57;100159.88;;;25.57;59.97
12536;BME280;6334;48.696;2.114;2022-08-01T11:20:28;100150.39;;;26.32;58.48
12536;BME280;6334;48.696;2.114;2022-08-01T11:38:46;100153.59;;;26.08;57.15
12536;BME280;6334;48.696;2.114;2022-08-01T11:41:16;100087.22;;;25.90;57.21
12536;BME280;6334;48.696;2.114;2022-08-01T11:44:02;100136.25;;;26.18;55.33
12536;BME280;6334;48.696;2.114;2022-08-01T11:52:09;100120.28;;;26.10;57.39
12536;BME280;6334;48.696;2.114;2022-08-01T11:54:43;100134.34;;;25.96;57.23
12536;BME280;6334;48.696;2.114;2022-08-01T11:57:17;100124.62;;;26.33;56.67
12536;BME280;6334;48.696;2.114;2022-08-01T11:59:43;100121.59;;;26.46;56.34
12536;BME280;6334;48.696;2.114;2022-08-01T12:02:23;100127.11;;;26.52;56.31
12536;BME280;6334;48.696;2.114;2022-08-01T12:04:59;100124.66;;;26.65;53.90
12536;BME280;6334;48.696;2.114;2022-08-01T12:07:29;100118.39;;;26.57;54.45
12536;BME280;6334;48.696;2.114;2022-08-01T12:10:06;100119.30;;;26.52;56.05
12536;BME280;6334;48.696;2.114;2022-08-01T12:12:36;100115.88;;;26.22;55.97
12536;BME280;6334;48.696;2.114;2022-08-01T12:15:07;100115.61;;;26.40;56.30
12536;BME280;6334;48.696;2.114;2022-08-01T12:17:40;100119.25;;;26.54;56.50
12536;BME280;6334;48.696;2.114;2022-08-01T12:20:11;100117.48;;;26.38;57.08
12536;BME280;6334;48.696;2.114;2022-08-01T12:22:40;100113.41;;;26.66;54.93
12536;BME280;6334;48.696;2.114;2022-08-01T12:25:12;100116.27;;;25.59;55.78
12536;BME280;6334;48.696;2.114;2022-08-01T12:27:41;100113.33;;;26.94;53.91
12536;BME280;6334;48.696;2.114;2022-08-01T12:30:12;100110.97;;;27.16;54.51
12536;BME280;6334;48.696;2.114;2022-08-01T12:32:43;100105.52;;;27.09;54.56
12536;BME280;6334;48.696;2.114;2022-08-01T12:35:16;100101.95;;;27.52;52.69
12536;BME280;6334;48.696;2.114;2022-08-01T12:37:46;100107.74;;;26.97;54.56
12536;BME280;6334;48.696;2.114;2022-08-01T12:40:15;100050.87;;;26.23;53.51
12536;BME280;6334;48.696;2.114;2022-08-01T12:42:47;100096.27;;;27.60;50.79
12536;BME280;6334;48.696;2.114;2022-08-01T12:45:15;100100.83;;;27.81;50.49
12536;BME280;6334;48.696;2.114;2022-08-01T12:47:45;100102.70;;;27.61;51.46
12536;BME280;6334;48.696;2.114;2022-08-01T12:50:16;100097.23;;;27.28;51.65
12536;BME280;6334;48.696;2.114;2022-08-01T12:52:46;100103.41;;;27.29;50.78
12536;BME280;6334;48.696;2.114;2022-08-01T12:55:19;100103.61;;;27.51;51.41
12536;BME280;6334;48.696;2.114;2022-08-01T12:57:50;100107.63;;;26.77;52.57
12536;BME280;6334;48.696;2.114;2022-08-01T13:00:23;100102.30;;;27.31;51.37
12536;BME280;6334;48.696;2.114;2022-08-01T13:03:08;100108.49;;;27.33;51.27
12536;BME280;6334;48.696;2.114;2022-08-01T13:05:56;100101.89;;;27.50;50.81
12536;BME280;6334;48.696;2.114;2022-08-01T13:08:26;100100.15;;;27.30;52.20
12536;BME280;6334;48.696;2.114;2022-08-01T13:11:08;100097.38;;;27.00;53.27
12536;BME280;6334;48.696;2.114;2022-08-01T13:13:41;100102.17;;;27.17;52.24
12536;BME280;6334;48.696;2.114;2022-08-01T13:16:09;100108.92;;;27.17;52.63
12536;BME280;6334;48.696;2.114;2022-08-01T13:18:40;100112.89;;;27.18;53.12
12536;BME280;6334;48.696;2.114;2022-08-01T13:21:13;100113.89;;;27.06;53.04
12536;BME280;6334;48.696;2.114;2022-08-01T13:26:50;100112.14;;;27.63;51.95
12536;BME280;6334;48.696;2.114;2022-08-01T13:29:19;100091.31;;;27.05;51.98
12536;BME280;6334;48.696;2.114;2022-08-01T13:31:49;100109.91;;;27.10;51.99
12536;BME280;6334;48.696;2.114;2022-08-01T13:34:28;100112.92;;;26.98;51.63
12536;BME280;6334;48.696;2.114;2022-08-01T13:36:50;100111.95;;;27.00;52.57
12536;BME280;6334;48.696;2.114;2022-08-01T13:39:20;100111.64;;;26.57;51.66
12536;BME280;6334;48.696;2.114;2022-08-01T13:42:09;100114.87;;;26.61;51.86
12536;BME280;6334;48.696;2.114;2022-08-01T13:44:39;100107.34;;;26.73;51.33
12536;BME280;6334;48.696;2.114;2022-08-01T13:47:09;100116.27;;;26.60;51.45
12536;BME280;6334;48.696;2.114;2022-08-01T13:49:40;100105.11;;;26.27;52.02
12536;BME280;6334;48.696;2.114;2022-08-01T13:52:10;100113.65;;;26.89;51.41